Tuesday, January 23, 2018, 6:51 PM EST
Back to Local

KORE, Orange, Orange Municipal Airport

Location: Orange, MA, United States Lat: 42.572
Local Time: 6:51 PM EST (23:51 GMT) Lon: -72.278
Time Zone: US/Eastern Elev: 554 ft

Show me the last for .
Show Decoded

2018-01-23 17:52 METAR KORE 232252Z AUTO 33003KT 3/4SM BR VV003 01/01 A2954 RMK AO2 SLP008
                 T00110011 =
2018-01-23 17:29 METAR KORE 232229Z AUTO 00000KT 1/2SM FG BKN002 01/01 A2952 RMK AO2 T00110011 =
2018-01-23 17:20 METAR KORE 232220Z AUTO 00000KT 1SM BR VV002 01/01 A2951 RMK AO2 T00110011 =
2018-01-23 17:15 METAR KORE 232215Z AUTO 00000KT 1 3/4SM BR SCT003 01/01 A2952 RMK AO2 VIS 1V5
                 T00060006 =
2018-01-23 17:05 METAR KORE 232205Z AUTO 00000KT 10SM SCT003 SCT055 02/02 A2952 RMK AO2 T00170017
                 =
2018-01-23 16:52 METAR KORE 232152Z AUTO 00000KT 10SM BKN004 BKN055 02/02 A2951 RMK AO2 CIG
                 002V006 SLP000 T00220022 =
2018-01-23 15:52 METAR KORE 232052Z AUTO 00000KT 10SM FEW004 BKN030 BKN090 03/03 A2950 RMK AO2
                 RAE1959 SLP997 P0000 60025 T00280028 58008 =
2018-01-23 14:52 METAR KORE 231952Z AUTO 04004KT 4SM -RA BR SCT007 BKN016 OVC021 02/02 A2953 RMK
                 AO2 UPB05E08 PRESFR SLP004 P0013 T00220022 =
2018-01-23 14:49 METAR KORE 231949Z AUTO 02004KT 2 1/2SM -RA BR SCT007 OVC016 02/02 A2953 RMK AO2
                 UPB05E08 P0013 =
2018-01-23 14:41 METAR KORE 231941Z AUTO 34007KT 2 1/2SM RA BR SCT005 BKN010 OVC016 02/02 A2954
                 RMK AO2 UPB05E08 P0012 T00170017 =
2018-01-23 14:33 METAR KORE 231933Z AUTO 34010KT 2SM RA BR BKN004 OVC010 02/02 A2955 RMK AO2
                 UPB05E08 P0010 T00170017 =
2018-01-23 14:19 METAR KORE 231919Z AUTO 30010KT 1 3/4SM +RA BR OVC004 02/02 A2954 RMK AO2
                 UPB05E08 P0004 T00220017 =
2018-01-23 14:10 METAR KORE 231910Z AUTO 31004KT 4SM -RA BR OVC004 02/02 A2952 RMK AO2 UPB05E08
                 P0000 T00170017 =
2018-01-23 14:03 METAR KORE 231903Z AUTO 32006KT 2 1/2SM -RA BR BKN004 OVC008 02/02 A2952 RMK AO2
                 P0000 T00170017 =
2018-01-23 13:52 METAR KORE 231852Z AUTO 00000KT 2 1/2SM -RA BR SCT004 OVC008 02/02 A2953 RMK AO2
                 PRESFR SLP005 P0012 T00170017 =
2018-01-23 13:47 METAR KORE 231847Z AUTO 02003KT 1 1/4SM -RA BR SCT006 OVC009 02/02 A2953 RMK AO2
                 P0011 =
2018-01-23 13:37 METAR KORE 231837Z AUTO 00000KT 1 3/4SM RA BR OVC006 02/02 A2954 RMK AO2 P0007
                 T00170017 =
2018-01-23 13:24 METAR KORE 231824Z AUTO 31004KT 2SM -RA BR OVC006 02/02 A2955 RMK AO2 P0004
                 T00170017 =
2018-01-23 13:17 METAR KORE 231817Z AUTO 30003KT 1 3/4SM RA BR OVC004 02/02 A2956 RMK AO2 P0003
                 T00170017 =
2018-01-23 13:10 METAR KORE 231810Z AUTO 32003KT 3SM -RA BR OVC004 02/01 A2956 RMK AO2 P0002
                 T00170011 =
2018-01-23 13:03 METAR KORE 231803Z AUTO 29005KT 3SM -RA BR OVC005 01/01 A2957 RMK AO2 P0001
                 T00110011 =
2018-01-23 12:52 METAR KORE 231752Z AUTO 00000KT 2SM -RA BR OVC005 01/01 A2957 RMK AO2 VIS 1V5
                 RAE1658B07 SLP020 P0003 60068 T00110011 10011 20000 58065 =
2018-01-23 12:33 METAR KORE 231733Z AUTO 00000KT 2SM RA BR OVC005 01/01 A2961 RMK AO2 VIS 1V5
                 RAE1658B07 P0002 T00110011 =
2018-01-23 12:25 METAR KORE 231725Z AUTO 00000KT 1 3/4SM -RA BR OVC006 01/01 A2961 RMK AO2 VIS 1
                 1/4V3 RAE1658B07 PRESFR P0001 T00110011 =
2018-01-23 12:03 METAR KORE 231703Z AUTO 00000KT 10SM OVC006 01/01 A2964 RMK AO2 RAE1658 PRESFR
                 P0000 T00110011 =
2018-01-23 11:52 METAR KORE 231652Z AUTO 33004KT 5SM -RA BR OVC004 01/01 A2966 RMK AO2 PRESFR
                 SLP049 P0005 T00110011 =
2018-01-23 11:24 METAR KORE 231624Z AUTO 33003KT 5SM -RA BR OVC005 01/01 A2969 RMK AO2 P0003
                 T00110011 =
2018-01-23 11:11 METAR KORE 231611Z AUTO 34003KT 2SM -RA BR BKN006 OVC010 01/01 A2971 RMK AO2
                 P0002 T00110006 =
2018-01-23 10:52 METAR KORE 231552Z AUTO 00000KT 4SM -RA BR OVC008 01/01 A2973 RMK AO2 SLP074
                 P0013 T00060006 =
2018-01-23 10:49 METAR KORE 231549Z AUTO 00000KT 3SM -RA BR OVC008 01/01 A2974 RMK AO2 P0013 =
2018-01-23 10:38 METAR KORE 231538Z AUTO 27003KT 1 3/4SM +RA BR OVC008 01/01 A2974 RMK AO2 P0012
                 T00060006 =
2018-01-23 10:16 METAR KORE 231516Z AUTO 00000KT 4SM RA BR OVC009 01/01 A2975 RMK AO2 P0006
                 T00060006 =
2018-01-23 10:07 METAR KORE 231507Z AUTO 00000KT 2 1/2SM RA BR BKN007 OVC011 01/01 A2976 RMK AO2
                 P0005 T00060006 =
2018-01-23 09:58 METAR KORE 231458Z AUTO 34003KT 2SM RA BR BKN005 OVC009 01/01 A2976 RMK AO2
                 P0002 T00060006 =
2018-01-23 09:52 METAR KORE 231452Z AUTO 35004KT 1 1/4SM +RA BR OVC007 01/01 A2977 RMK AO2 SLP087
                 P0039 60047 T00060006 56047 =
2018-01-23 09:44 METAR KORE 231444Z AUTO 32005KT 1 1/4SM +RA BR BKN005 OVC008 01/01 A2978 RMK AO2
                 P0034 T00060006 =
2018-01-23 09:35 METAR KORE 231435Z AUTO 35003KT 1 1/4SM +RA BR OVC006 01/01 A2979 RMK AO2 P0026
                 T00060006 =
2018-01-23 09:28 METAR KORE 231428Z AUTO 00000KT 2SM +RA BR OVC005 01/01 A2979 RMK AO2 P0021
                 T00060006 =
2018-01-23 09:15 METAR KORE 231415Z AUTO 32005KT 1 1/2SM +RA BR OVC005 01/00 A2981 RMK AO2 P0014
                 T00060000 =
2018-01-23 09:08 METAR KORE 231408Z AUTO 31006KT 1 1/4SM +RA BR BKN003 OVC007 01/01 A2982 RMK AO2
                 P0011 T00060006 =
2018-01-23 09:01 METAR KORE 231401Z AUTO 35003KT 1 1/4SM +RA BR OVC005 01/01 A2981 RMK AO2 P0006
                 T00060006 =
2018-01-23 08:52 METAR KORE 231352Z AUTO 00000KT 1SM +RA BR OVC003 01/01 A2982 RMK AO2
                 UPB02E27RAB27 SLP105 P0008 T00060006 =
2018-01-23 07:52 METAR KORE 231252Z AUTO 00000KT 3/4SM BR OVC002 00/00 A2985 RMK AO2 SLP116
                 T00000000 $ =
2018-01-23 07:44 METAR KORE 231244Z AUTO 00000KT 1SM BR OVC003 00/00 A2986 RMK AO2 T00000000 $ =
2018-01-23 07:39 METAR KORE 231239Z AUTO 00000KT 1 1/2SM BR OVC003 00/00 A2987 RMK AO2 PRESFR
                 T00000000 =
2018-01-23 06:52 METAR KORE 231152Z AUTO 08004KT 2SM BR OVC003 00/00 A2991 RMK AO2 UPB1058E08
                 SLP135 P0000 60000 70009 I6002 T00000000 10000 21006 58019 =
2018-01-23 06:40 METAR KORE 231140Z AUTO 07005KT 2SM BR OVC003 00/00 A2992 RMK AO2 UPB1058E08
                 PRESFR P0000 T00000000 =
2018-01-23 05:52 METAR KORE 231052Z AUTO 32005KT 5SM BR OVC004 00/00 A2993 RMK AO2 SLP143
                 T00000000 =
2018-01-23 05:23 METAR KORE 231023Z AUTO 01003KT 3SM BR OVC003 00/00 A2995 RMK AO2 T00000000 =
2018-01-23 05:01 METAR KORE 231001Z AUTO 00000KT 2 1/2SM BR OVC003 00/00 A2996 RMK AO2 T00000000
                 =
2018-01-23 04:52 METAR KORE 230952Z AUTO 00000KT 1 3/4SM BR OVC003 00/00 A2997 RMK AO2 SLP155
                 I1002 T00000000 =
2018-01-23 04:32 METAR KORE 230932Z AUTO 02003KT 2 1/2SM BR OVC003 00/00 A2998 RMK AO2 I1002
                 T00000000 =
2018-01-23 03:52 METAR KORE 230852Z AUTO 04003KT 7SM OVC004 00/00 A3000 RMK AO2 PRESFR SLP166
                 I1000 I3000 T00000000 58035 =
2018-01-23 02:52 METAR KORE 230752Z AUTO 35003KT 3SM BR OVC003 00/00 A3005 RMK AO2 SLP182 I1000
                 T00000000 =
2018-01-23 01:52 METAR KORE 230652Z AUTO 33003KT 2SM BR OVC004 00/M01 A3007 RMK AO2 SLP190 I1000
                 T00001006 =
2018-01-23 01:13 METAR KORE 230613Z AUTO 00000KT 2 1/2SM BR OVC004 00/00 A3009 RMK AO2 T00000000
                 =
2018-01-23 00:52 METAR KORE 230552Z AUTO 00000KT 2 1/2SM BR OVC005 00/00 A3011 RMK AO2 SLP202
                 60008 I1001 I6007 T00000000 10000 21006 58025 =
2018-01-23 00:41 METAR KORE 230541Z AUTO 32003KT 3SM BR OVC005 M01/M01 A3013 RMK AO2 I1000
                 T10061006 =
2018-01-23 00:19 METAR KORE 230519Z AUTO 36003KT 3SM BR OVC004 M01/M01 A3013 RMK AO2 I1000
                 T10061006 =
2018-01-23 00:10 METAR KORE 230510Z AUTO 35003KT 2 1/2SM BR OVC004 M01/M01 A3013 RMK AO2
                 T10061006 =
2018-01-23 00:00 METAR KORE 230500Z AUTO 00000KT 3SM BR OVC004 M01/M01 A3013 RMK AO2 T10061006 =
2018-01-22 23:52 METAR KORE 230452Z AUTO 00000KT 3SM BR OVC005 M01/M01 A3013 RMK AO2 SLP211
                 T10061006 400221022 =
2018-01-22 23:23 METAR KORE 230423Z AUTO 01003KT 5SM BR OVC005 M01/M01 A3014 RMK AO2 T10061006 =
2018-01-22 22:52 METAR KORE 230352Z AUTO 02004KT 10SM OVC008 M01/M01 A3016 RMK AO2 SLP219
                 T10061006 =
2018-01-22 22:22 METAR KORE 230322Z AUTO 04003KT 10SM OVC009 00/M01 A3017 RMK AO2 T00001006 =
2018-01-22 21:52 METAR KORE 230252Z AUTO 00000KT 10SM OVC010 00/M01 A3018 RMK AO2
                 UPB0154E01FZRAE0154 SLP227 P0000 60008 I1000 I3006 T00001006 58014 =
2018-01-22 21:00 METAR KORE 230200Z AUTO 06003KT 10SM UP OVC013 00/M01 A3020 RMK AO2
                 UPB0154FZRAE0154 P0000 I1000 T00001006 =
2018-01-22 20:52 METAR KORE 230152Z AUTO 07005KT 9SM -FZRA OVC013 00/M01 A3020 RMK AO2 SLP234
                 P0002 I1002 T00001006 =
2018-01-22 19:56 METAR KORE 230056Z AUTO 04003KT 4SM -FZRA BR OVC010 00/00 A3023 RMK AO2 CIG
                 007V013 P0000 I1000 T00000000 =
2018-01-22 19:52 METAR KORE 230052Z AUTO 01003KT 4SM FZRA BR OVC009 00/00 A3023 RMK AO2
                 UPE15FZRAB15 CIG 007V012 SLP245 P0006 I1004 T00000000 =
2018-01-22 19:37 METAR KORE 230037Z AUTO 00000KT 3SM FZRA BR OVC009 00/M01 A3023 RMK AO2
                 UPE15FZRAB15 P0003 I1002 T00001006 =
2018-01-22 19:21 METAR KORE 230021Z AUTO 04003KT 7SM -FZRA OVC009 00/M01 A3023 RMK AO2
                 UPE15FZRAB15 P0000 I1001 T00001006 =
2018-01-22 18:52 METAR KORE 222352Z AUTO 06006KT 9SM UP OVC009 00/M01 A3022 RMK AO2 UPB23 SLP242
                 P0000 60000 T00001006 10022 20000 50001 =

Support USWX by starting your Amazon purchase here.